sensor_id;sensor_type;location;lat;lon;timestamp;P1;durP1;ratioP1;P2;durP2;ratioP2
36575;SDS011;45700;50.930;5.168;2023-07-29T00:01:47;2.15;;;1.80;;
36575;SDS011;45700;50.930;5.168;2023-07-29T00:05:49;1.75;;;1.45;;
36575;SDS011;45700;50.930;5.168;2023-07-29T00:09:50;3.33;;;1.55;;
36575;SDS011;45700;50.930;5.168;2023-07-29T00:13:51;1.80;;;1.42;;
36575;SDS011;45700;50.930;5.168;2023-07-29T00:17:52;3.10;;;1.98;;
36575;SDS011;45700;50.930;5.168;2023-07-29T00:21:53;5.93;;;3.30;;
36575;SDS011;45700;50.930;5.168;2023-07-29T00:25:54;4.07;;;2.90;;
36575;SDS011;45700;50.930;5.168;2023-07-29T00:29:55;5.63;;;4.07;;
36575;SDS011;45700;50.930;5.168;2023-07-29T00:33:56;11.13;;;6.65;;
36575;SDS011;45700;50.930;5.168;2023-07-29T00:37:58;32.47;;;17.00;;
36575;SDS011;45700;50.930;5.168;2023-07-29T00:41:59;20.95;;;11.70;;
36575;SDS011;45700;50.930;5.168;2023-07-29T00:46:00;11.07;;;6.25;;
36575;SDS011;45700;50.930;5.168;2023-07-29T00:50:01;5.78;;;2.97;;
36575;SDS011;45700;50.930;5.168;2023-07-29T00:54:02;4.85;;;2.47;;
36575;SDS011;45700;50.930;5.168;2023-07-29T00:58:03;3.50;;;1.85;;
36575;SDS011;45700;50.930;5.168;2023-07-29T01:02:04;3.50;;;1.88;;
36575;SDS011;45700;50.930;5.168;2023-07-29T01:06:12;3.88;;;2.22;;
36575;SDS011;45700;50.930;5.168;2023-07-29T01:14:36;7.57;;;3.10;;
36575;SDS011;45700;50.930;5.168;2023-07-29T01:18:40;3.70;;;2.33;;
36575;SDS011;45700;50.930;5.168;2023-07-29T01:22:41;6.03;;;2.20;;
36575;SDS011;45700;50.930;5.168;2023-07-29T01:26:42;2.40;;;2.00;;
36575;SDS011;45700;50.930;5.168;2023-07-29T01:30:43;6.05;;;2.22;;
36575;SDS011;45700;50.930;5.168;2023-07-29T01:34:47;2.30;;;1.42;;
36575;SDS011;45700;50.930;5.168;2023-07-29T01:38:49;1.88;;;1.20;;
36575;SDS011;45700;50.930;5.168;2023-07-29T01:42:51;1.27;;;1.10;;
36575;SDS011;45700;50.930;5.168;2023-07-29T01:46:52;2.10;;;0.88;;
36575;SDS011;45700;50.930;5.168;2023-07-29T01:50:55;9.55;;;1.80;;
36575;SDS011;45700;50.930;5.168;2023-07-29T01:54:56;1.90;;;1.23;;
36575;SDS011;45700;50.930;5.168;2023-07-29T01:58:57;1.38;;;0.85;;
36575;SDS011;45700;50.930;5.168;2023-07-29T02:02:58;1.75;;;0.98;;
36575;SDS011;45700;50.930;5.168;2023-07-29T02:06:59;1.33;;;0.77;;
36575;SDS011;45700;50.930;5.168;2023-07-29T02:11:00;4.28;;;1.13;;
36575;SDS011;45700;50.930;5.168;2023-07-29T02:15:01;1.10;;;1.00;;
36575;SDS011;45700;50.930;5.168;2023-07-29T02:19:02;2.53;;;1.05;;
36575;SDS011;45700;50.930;5.168;2023-07-29T02:23:03;1.42;;;1.00;;
36575;SDS011;45700;50.930;5.168;2023-07-29T02:27:04;3.13;;;1.05;;
36575;SDS011;45700;50.930;5.168;2023-07-29T02:31:20;2.25;;;0.90;;
36575;SDS011;45700;50.930;5.168;2023-07-29T02:35:21;1.80;;;1.20;;
36575;SDS011;45700;50.930;5.168;2023-07-29T02:39:22;1.20;;;0.98;;
36575;SDS011;45700;50.930;5.168;2023-07-29T02:43:23;2.20;;;1.10;;
36575;SDS011;45700;50.930;5.168;2023-07-29T02:47:24;3.22;;;1.45;;
36575;SDS011;45700;50.930;5.168;2023-07-29T02:51:25;1.17;;;0.80;;
36575;SDS011;45700;50.930;5.168;2023-07-29T02:55:26;2.35;;;0.95;;
36575;SDS011;45700;50.930;5.168;2023-07-29T02:59:27;1.42;;;0.82;;
36575;SDS011;45700;50.930;5.168;2023-07-29T03:03:28;0.93;;;0.80;;
36575;SDS011;45700;50.930;5.168;2023-07-29T03:07:29;1.90;;;0.98;;
36575;SDS011;45700;50.930;5.168;2023-07-29T03:11:30;2.03;;;0.70;;
36575;SDS011;45700;50.930;5.168;2023-07-29T03:15:31;1.02;;;0.80;;
36575;SDS011;45700;50.930;5.168;2023-07-29T03:19:34;3.05;;;1.10;;
36575;SDS011;45700;50.930;5.168;2023-07-29T03:23:35;1.55;;;0.90;;
36575;SDS011;45700;50.930;5.168;2023-07-29T03:27:36;1.25;;;0.75;;
36575;SDS011;45700;50.930;5.168;2023-07-29T03:31:37;1.75;;;0.93;;
36575;SDS011;45700;50.930;5.168;2023-07-29T03:35:38;3.60;;;0.95;;
36575;SDS011;45700;50.930;5.168;2023-07-29T03:39:39;0.82;;;0.70;;
36575;SDS011;45700;50.930;5.168;2023-07-29T03:43:40;3.60;;;1.38;;
36575;SDS011;45700;50.930;5.168;2023-07-29T03:47:41;2.90;;;1.02;;
36575;SDS011;45700;50.930;5.168;2023-07-29T03:51:42;6.43;;;1.85;;
36575;SDS011;45700;50.930;5.168;2023-07-29T03:55:43;7.03;;;1.38;;
36575;SDS011;45700;50.930;5.168;2023-07-29T03:59:44;2.47;;;1.20;;
36575;SDS011;45700;50.930;5.168;2023-07-29T04:03:45;2.72;;;0.98;;
36575;SDS011;45700;50.930;5.168;2023-07-29T04:07:46;2.13;;;1.23;;
36575;SDS011;45700;50.930;5.168;2023-07-29T04:11:47;2.70;;;1.48;;
36575;SDS011;45700;50.930;5.168;2023-07-29T04:15:48;1.65;;;0.93;;
36575;SDS011;45700;50.930;5.168;2023-07-29T04:19:49;2.47;;;1.30;;
36575;SDS011;45700;50.930;5.168;2023-07-29T04:23:50;3.30;;;1.30;;
36575;SDS011;45700;50.930;5.168;2023-07-29T04:27:51;3.35;;;1.17;;
36575;SDS011;45700;50.930;5.168;2023-07-29T04:31:52;4.18;;;1.40;;
36575;SDS011;45700;50.930;5.168;2023-07-29T04:35:53;1.80;;;1.20;;
36575;SDS011;45700;50.930;5.168;2023-07-29T04:39:54;4.15;;;1.10;;
36575;SDS011;45700;50.930;5.168;2023-07-29T04:43:55;2.45;;;1.15;;
36575;SDS011;45700;50.930;5.168;2023-07-29T04:47:57;2.08;;;1.48;;
36575;SDS011;45700;50.930;5.168;2023-07-29T04:51:58;3.47;;;1.45;;
36575;SDS011;45700;50.930;5.168;2023-07-29T04:55:59;2.42;;;1.38;;
36575;SDS011;45700;50.930;5.168;2023-07-29T05:00:01;2.08;;;1.13;;
36575;SDS011;45700;50.930;5.168;2023-07-29T05:04:03;1.98;;;1.30;;
36575;SDS011;45700;50.930;5.168;2023-07-29T05:08:04;2.45;;;1.40;;
36575;SDS011;45700;50.930;5.168;2023-07-29T05:12:05;3.00;;;1.40;;
36575;SDS011;45700;50.930;5.168;2023-07-29T05:16:06;3.63;;;1.45;;
36575;SDS011;45700;50.930;5.168;2023-07-29T05:20:07;6.25;;;1.70;;
36575;SDS011;45700;50.930;5.168;2023-07-29T05:24:08;1.98;;;1.10;;
36575;SDS011;45700;50.930;5.168;2023-07-29T05:28:09;3.55;;;1.23;;
36575;SDS011;45700;50.930;5.168;2023-07-29T05:32:10;2.15;;;1.27;;
36575;SDS011;45700;50.930;5.168;2023-07-29T05:36:11;1.90;;;0.90;;
36575;SDS011;45700;50.930;5.168;2023-07-29T05:40:12;3.17;;;0.98;;
36575;SDS011;45700;50.930;5.168;2023-07-29T05:44:13;1.17;;;0.90;;
36575;SDS011;45700;50.930;5.168;2023-07-29T05:48:14;2.22;;;1.05;;
36575;SDS011;45700;50.930;5.168;2023-07-29T05:52:15;3.22;;;1.05;;
36575;SDS011;45700;50.930;5.168;2023-07-29T05:56:16;2.15;;;1.05;;
36575;SDS011;45700;50.930;5.168;2023-07-29T06:00:17;3.67;;;1.00;;
36575;SDS011;45700;50.930;5.168;2023-07-29T06:04:18;4.05;;;1.20;;
36575;SDS011;45700;50.930;5.168;2023-07-29T06:08:20;1.90;;;1.27;;
36575;SDS011;45700;50.930;5.168;2023-07-29T06:12:22;1.30;;;0.95;;
36575;SDS011;45700;50.930;5.168;2023-07-29T06:16:23;1.30;;;0.85;;
36575;SDS011;45700;50.930;5.168;2023-07-29T06:20:24;1.30;;;0.93;;
36575;SDS011;45700;50.930;5.168;2023-07-29T06:24:26;1.92;;;1.08;;
36575;SDS011;45700;50.930;5.168;2023-07-29T06:28:28;1.55;;;1.20;;
36575;SDS011;45700;50.930;5.168;2023-07-29T06:32:29;2.25;;;1.02;;
36575;SDS011;45700;50.930;5.168;2023-07-29T06:36:30;1.85;;;0.90;;
36575;SDS011;45700;50.930;5.168;2023-07-29T06:40:31;1.98;;;0.90;;
36575;SDS011;45700;50.930;5.168;2023-07-29T06:44:32;2.83;;;1.05;;
36575;SDS011;45700;50.930;5.168;2023-07-29T06:48:33;2.10;;;0.80;;
36575;SDS011;45700;50.930;5.168;2023-07-29T06:52:34;1.65;;;0.80;;
36575;SDS011;45700;50.930;5.168;2023-07-29T06:56:36;2.50;;;0.90;;
36575;SDS011;45700;50.930;5.168;2023-07-29T07:00:37;5.55;;;1.02;;
36575;SDS011;45700;50.930;5.168;2023-07-29T07:04:38;1.13;;;0.57;;
36575;SDS011;45700;50.930;5.168;2023-07-29T07:08:39;1.25;;;0.68;;
36575;SDS011;45700;50.930;5.168;2023-07-29T07:12:41;1.83;;;0.82;;
36575;SDS011;45700;50.930;5.168;2023-07-29T07:16:42;1.23;;;0.80;;
36575;SDS011;45700;50.930;5.168;2023-07-29T07:20:43;1.38;;;0.65;;
36575;SDS011;45700;50.930;5.168;2023-07-29T07:24:44;0.65;;;0.55;;
36575;SDS011;45700;50.930;5.168;2023-07-29T07:28:45;1.13;;;0.85;;
36575;SDS011;45700;50.930;5.168;2023-07-29T07:32:46;1.15;;;0.70;;
36575;SDS011;45700;50.930;5.168;2023-07-29T07:36:47;0.73;;;0.57;;
36575;SDS011;45700;50.930;5.168;2023-07-29T07:40:55;1.00;;;0.50;;
36575;SDS011;45700;50.930;5.168;2023-07-29T07:44:56;2.93;;;0.70;;
36575;SDS011;45700;50.930;5.168;2023-07-29T07:48:57;0.70;;;0.60;;
36575;SDS011;45700;50.930;5.168;2023-07-29T07:52:58;0.95;;;0.70;;
36575;SDS011;45700;50.930;5.168;2023-07-29T07:56:59;0.63;;;0.50;;
36575;SDS011;45700;50.930;5.168;2023-07-29T08:01:04;1.50;;;0.60;;
36575;SDS011;45700;50.930;5.168;2023-07-29T08:05:06;0.70;;;0.40;;
36575;SDS011;45700;50.930;5.168;2023-07-29T08:09:07;2.05;;;0.65;;
36575;SDS011;45700;50.930;5.168;2023-07-29T08:13:08;2.60;;;0.77;;
36575;SDS011;45700;50.930;5.168;2023-07-29T08:17:09;1.90;;;0.60;;
36575;SDS011;45700;50.930;5.168;2023-07-29T08:21:10;2.28;;;0.80;;
36575;SDS011;45700;50.930;5.168;2023-07-29T08:25:11;1.13;;;0.75;;
36575;SDS011;45700;50.930;5.168;2023-07-29T08:29:12;0.82;;;0.52;;
36575;SDS011;45700;50.930;5.168;2023-07-29T08:33:13;3.28;;;0.60;;
36575;SDS011;45700;50.930;5.168;2023-07-29T08:37:14;1.30;;;0.40;;
36575;SDS011;45700;50.930;5.168;2023-07-29T08:45:19;3.97;;;0.60;;
36575;SDS011;45700;50.930;5.168;2023-07-29T08:49:21;0.70;;;0.35;;
36575;SDS011;45700;50.930;5.168;2023-07-29T08:57:37;0.55;;;0.40;;
36575;SDS011;45700;50.930;5.168;2023-07-29T09:01:38;1.38;;;0.80;;
36575;SDS011;45700;50.930;5.168;2023-07-29T09:05:39;1.90;;;0.90;;
36575;SDS011;45700;50.930;5.168;2023-07-29T09:09:40;2.38;;;1.08;;
36575;SDS011;45700;50.930;5.168;2023-07-29T09:13:41;1.10;;;0.73;;
36575;SDS011;45700;50.930;5.168;2023-07-29T09:17:42;2.58;;;0.90;;
36575;SDS011;45700;50.930;5.168;2023-07-29T09:21:45;2.03;;;0.82;;
36575;SDS011;45700;50.930;5.168;2023-07-29T09:25:47;1.63;;;0.95;;
36575;SDS011;45700;50.930;5.168;2023-07-29T09:29:48;1.80;;;1.00;;
36575;SDS011;45700;50.930;5.168;2023-07-29T09:33:49;0.65;;;0.57;;
36575;SDS011;45700;50.930;5.168;2023-07-29T09:37:50;0.85;;;0.60;;
36575;SDS011;45700;50.930;5.168;2023-07-29T09:41:51;0.70;;;0.50;;
36575;SDS011;45700;50.930;5.168;2023-07-29T09:45:52;1.48;;;0.50;;
36575;SDS011;45700;50.930;5.168;2023-07-29T09:49:53;0.95;;;0.60;;
36575;SDS011;45700;50.930;5.168;2023-07-29T09:53:54;2.30;;;0.80;;
36575;SDS011;45700;50.930;5.168;2023-07-29T09:57:56;1.15;;;0.80;;
36575;SDS011;45700;50.930;5.168;2023-07-29T10:02:01;0.82;;;0.63;;
36575;SDS011;45700;50.930;5.168;2023-07-29T10:06:02;1.35;;;0.60;;
36575;SDS011;45700;50.930;5.168;2023-07-29T10:14:27;1.15;;;0.70;;
36575;SDS011;45700;50.930;5.168;2023-07-29T10:18:32;1.45;;;1.10;;
36575;SDS011;45700;50.930;5.168;2023-07-29T10:22:34;1.58;;;0.90;;
36575;SDS011;45700;50.930;5.168;2023-07-29T10:26:36;0.77;;;0.70;;
36575;SDS011;45700;50.930;5.168;2023-07-29T10:30:39;0.90;;;0.80;;
36575;SDS011;45700;50.930;5.168;2023-07-29T10:34:40;1.15;;;0.82;;
36575;SDS011;45700;50.930;5.168;2023-07-29T10:38:42;1.10;;;0.77;;
36575;SDS011;45700;50.930;5.168;2023-07-29T10:42:59;2.40;;;1.55;;
36575;SDS011;45700;50.930;5.168;2023-07-29T10:47:07;2.20;;;1.40;;
36575;SDS011;45700;50.930;5.168;2023-07-29T10:55:31;1.27;;;1.00;;
36575;SDS011;45700;50.930;5.168;2023-07-29T10:59:33;2.08;;;0.90;;
36575;SDS011;45700;50.930;5.168;2023-07-29T11:03:34;2.05;;;1.40;;
36575;SDS011;45700;50.930;5.168;2023-07-29T11:07:47;2.00;;;0.90;;
36575;SDS011;45700;50.930;5.168;2023-07-29T11:11:49;0.98;;;0.85;;
36575;SDS011;45700;50.930;5.168;2023-07-29T11:15:50;1.00;;;0.70;;
36575;SDS011;45700;50.930;5.168;2023-07-29T11:19:53;2.13;;;1.60;;
36575;SDS011;45700;50.930;5.168;2023-07-29T11:23:56;1.60;;;1.10;;
36575;SDS011;45700;50.930;5.168;2023-07-29T11:27:58;1.80;;;1.10;;
36575;SDS011;45700;50.930;5.168;2023-07-29T11:31:59;3.28;;;1.08;;
36575;SDS011;45700;50.930;5.168;2023-07-29T11:36:00;2.72;;;1.00;;
36575;SDS011;45700;50.930;5.168;2023-07-29T11:40:02;1.38;;;1.10;;
36575;SDS011;45700;50.930;5.168;2023-07-29T11:44:03;2.17;;;0.95;;
36575;SDS011;45700;50.930;5.168;2023-07-29T11:48:04;1.10;;;0.98;;
36575;SDS011;45700;50.930;5.168;2023-07-29T11:52:08;2.45;;;1.30;;
36575;SDS011;45700;50.930;5.168;2023-07-29T11:56:09;1.48;;;1.20;;
36575;SDS011;45700;50.930;5.168;2023-07-29T12:00:13;1.77;;;1.00;;
36575;SDS011;45700;50.930;5.168;2023-07-29T12:04:14;2.08;;;1.10;;
36575;SDS011;45700;50.930;5.168;2023-07-29T12:08:16;0.98;;;0.70;;
36575;SDS011;45700;50.930;5.168;2023-07-29T12:12:17;1.10;;;1.00;;
36575;SDS011;45700;50.930;5.168;2023-07-29T12:16:18;1.58;;;0.98;;
36575;SDS011;45700;50.930;5.168;2023-07-29T12:20:19;1.10;;;0.77;;
36575;SDS011;45700;50.930;5.168;2023-07-29T12:24:22;1.15;;;0.70;;
36575;SDS011;45700;50.930;5.168;2023-07-29T12:28:23;1.98;;;0.70;;
36575;SDS011;45700;50.930;5.168;2023-07-29T12:32:24;2.08;;;0.90;;
36575;SDS011;45700;50.930;5.168;2023-07-29T12:36:45;2.15;;;0.93;;
36575;SDS011;45700;50.930;5.168;2023-07-29T12:40:47;1.02;;;0.70;;
36575;SDS011;45700;50.930;5.168;2023-07-29T12:44:48;1.88;;;1.20;;
36575;SDS011;45700;50.930;5.168;2023-07-29T12:48:49;1.23;;;0.88;;
36575;SDS011;45700;50.930;5.168;2023-07-29T12:52:50;1.42;;;1.13;;
36575;SDS011;45700;50.930;5.168;2023-07-29T12:56:51;1.42;;;1.02;;
36575;SDS011;45700;50.930;5.168;2023-07-29T13:00:52;4.40;;;1.48;;
36575;SDS011;45700;50.930;5.168;2023-07-29T13:04:56;1.85;;;1.20;;
36575;SDS011;45700;50.930;5.168;2023-07-29T13:08:57;2.42;;;1.23;;
36575;SDS011;45700;50.930;5.168;2023-07-29T13:12:58;1.67;;;1.27;;
36575;SDS011;45700;50.930;5.168;2023-07-29T13:16:59;4.38;;;1.40;;
36575;SDS011;45700;50.930;5.168;2023-07-29T13:21:00;2.28;;;1.30;;
36575;SDS011;45700;50.930;5.168;2023-07-29T13:25:01;5.72;;;1.60;;
36575;SDS011;45700;50.930;5.168;2023-07-29T13:29:02;1.90;;;1.30;;
36575;SDS011;45700;50.930;5.168;2023-07-29T13:33:04;2.83;;;1.48;;
36575;SDS011;45700;50.930;5.168;2023-07-29T13:37:05;1.40;;;1.20;;
36575;SDS011;45700;50.930;5.168;2023-07-29T13:41:06;2.05;;;1.17;;
36575;SDS011;45700;50.930;5.168;2023-07-29T13:45:07;2.88;;;1.35;;
36575;SDS011;45700;50.930;5.168;2023-07-29T13:49:08;3.17;;;1.58;;
36575;SDS011;45700;50.930;5.168;2023-07-29T13:53:09;2.30;;;1.52;;
36575;SDS011;45700;50.930;5.168;2023-07-29T13:57:10;4.35;;;1.83;;
36575;SDS011;45700;50.930;5.168;2023-07-29T14:01:12;2.38;;;1.58;;
36575;SDS011;45700;50.930;5.168;2023-07-29T14:05:13;4.60;;;2.17;;
36575;SDS011;45700;50.930;5.168;2023-07-29T14:09:14;2.22;;;1.38;;
36575;SDS011;45700;50.930;5.168;2023-07-29T14:13:15;2.40;;;1.60;;
36575;SDS011;45700;50.930;5.168;2023-07-29T14:17:16;1.40;;;1.15;;
36575;SDS011;45700;50.930;5.168;2023-07-29T14:21:17;1.92;;;1.38;;
36575;SDS011;45700;50.930;5.168;2023-07-29T14:25:18;1.10;;;0.93;;
36575;SDS011;45700;50.930;5.168;2023-07-29T14:29:19;1.30;;;0.80;;
36575;SDS011;45700;50.930;5.168;2023-07-29T14:33:20;1.15;;;0.65;;
36575;SDS011;45700;50.930;5.168;2023-07-29T14:37:21;1.85;;;0.82;;
36575;SDS011;45700;50.930;5.168;2023-07-29T14:41:22;0.65;;;0.55;;
36575;SDS011;45700;50.930;5.168;2023-07-29T14:45:23;2.35;;;0.90;;
36575;SDS011;45700;50.930;5.168;2023-07-29T14:49:24;3.22;;;1.10;;
36575;SDS011;45700;50.930;5.168;2023-07-29T14:53:25;1.00;;;0.70;;
36575;SDS011;45700;50.930;5.168;2023-07-29T14:57:26;0.90;;;0.90;;
36575;SDS011;45700;50.930;5.168;2023-07-29T15:01:27;1.17;;;0.90;;
36575;SDS011;45700;50.930;5.168;2023-07-29T15:05:28;3.63;;;1.17;;
36575;SDS011;45700;50.930;5.168;2023-07-29T15:09:29;3.38;;;0.95;;
36575;SDS011;45700;50.930;5.168;2023-07-29T15:13:30;1.20;;;0.85;;
36575;SDS011;45700;50.930;5.168;2023-07-29T15:17:31;1.42;;;1.10;;
36575;SDS011;45700;50.930;5.168;2023-07-29T15:21:32;2.65;;;1.08;;
36575;SDS011;45700;50.930;5.168;2023-07-29T15:25:33;1.33;;;0.73;;
36575;SDS011;45700;50.930;5.168;2023-07-29T15:29:34;1.00;;;0.80;;
36575;SDS011;45700;50.930;5.168;2023-07-29T15:33:36;1.15;;;1.00;;
36575;SDS011;45700;50.930;5.168;2023-07-29T15:37:37;1.38;;;0.80;;
36575;SDS011;45700;50.930;5.168;2023-07-29T15:41:38;2.28;;;1.02;;
36575;SDS011;45700;50.930;5.168;2023-07-29T15:45:39;2.30;;;0.80;;
36575;SDS011;45700;50.930;5.168;2023-07-29T15:49:40;1.00;;;0.88;;
36575;SDS011;45700;50.930;5.168;2023-07-29T15:53:41;3.03;;;0.75;;
36575;SDS011;45700;50.930;5.168;2023-07-29T15:57:42;2.58;;;0.68;;
36575;SDS011;45700;50.930;5.168;2023-07-29T16:01:43;3.88;;;1.00;;
36575;SDS011;45700;50.930;5.168;2023-07-29T16:05:44;0.80;;;0.70;;
36575;SDS011;45700;50.930;5.168;2023-07-29T16:09:46;1.70;;;1.00;;
36575;SDS011;45700;50.930;5.168;2023-07-29T16:13:47;1.02;;;0.82;;
36575;SDS011;45700;50.930;5.168;2023-07-29T16:17:48;2.40;;;1.02;;
36575;SDS011;45700;50.930;5.168;2023-07-29T16:21:52;0.95;;;0.60;;
36575;SDS011;45700;50.930;5.168;2023-07-29T16:25:53;1.38;;;0.90;;
36575;SDS011;45700;50.930;5.168;2023-07-29T16:29:54;1.08;;;0.88;;
36575;SDS011;45700;50.930;5.168;2023-07-29T16:33:55;0.90;;;0.73;;
36575;SDS011;45700;50.930;5.168;2023-07-29T16:37:56;0.55;;;0.50;;
36575;SDS011;45700;50.930;5.168;2023-07-29T16:41:59;3.22;;;0.60;;
36575;SDS011;45700;50.930;5.168;2023-07-29T16:46:00;0.65;;;0.65;;
36575;SDS011;45700;50.930;5.168;2023-07-29T16:50:02;0.77;;;0.75;;
36575;SDS011;45700;50.930;5.168;2023-07-29T16:54:03;1.08;;;0.47;;
36575;SDS011;45700;50.930;5.168;2023-07-29T16:58:06;0.93;;;0.57;;
36575;SDS011;45700;50.930;5.168;2023-07-29T17:02:07;0.57;;;0.50;;
36575;SDS011;45700;50.930;5.168;2023-07-29T17:06:09;0.57;;;0.45;;
36575;SDS011;45700;50.930;5.168;2023-07-29T17:10:10;0.73;;;0.50;;
36575;SDS011;45700;50.930;5.168;2023-07-29T17:14:11;0.80;;;0.63;;
36575;SDS011;45700;50.930;5.168;2023-07-29T17:18:12;0.63;;;0.57;;
36575;SDS011;45700;50.930;5.168;2023-07-29T17:22:13;0.65;;;0.57;;
36575;SDS011;45700;50.930;5.168;2023-07-29T17:26:14;1.23;;;0.80;;
36575;SDS011;45700;50.930;5.168;2023-07-29T17:30:15;3.63;;;0.88;;
36575;SDS011;45700;50.930;5.168;2023-07-29T17:34:16;0.68;;;0.50;;
36575;SDS011;45700;50.930;5.168;2023-07-29T17:38:18;1.10;;;0.50;;
36575;SDS011;45700;50.930;5.168;2023-07-29T17:42:19;0.80;;;0.70;;
36575;SDS011;45700;50.930;5.168;2023-07-29T17:46:20;0.77;;;0.45;;
36575;SDS011;45700;50.930;5.168;2023-07-29T17:50:21;0.60;;;0.60;;
36575;SDS011;45700;50.930;5.168;2023-07-29T17:54:22;1.13;;;0.75;;
36575;SDS011;45700;50.930;5.168;2023-07-29T17:58:23;0.77;;;0.77;;
36575;SDS011;45700;50.930;5.168;2023-07-29T18:02:24;1.25;;;0.82;;
36575;SDS011;45700;50.930;5.168;2023-07-29T18:06:25;0.98;;;0.77;;
36575;SDS011;45700;50.930;5.168;2023-07-29T18:10:27;1.10;;;0.70;;
36575;SDS011;45700;50.930;5.168;2023-07-29T18:14:28;1.15;;;0.63;;
36575;SDS011;45700;50.930;5.168;2023-07-29T18:18:29;1.30;;;0.63;;
36575;SDS011;45700;50.930;5.168;2023-07-29T18:22:30;1.15;;;0.60;;
36575;SDS011;45700;50.930;5.168;2023-07-29T18:30:42;0.70;;;0.60;;
36575;SDS011;45700;50.930;5.168;2023-07-29T18:34:43;0.63;;;0.63;;
36575;SDS011;45700;50.930;5.168;2023-07-29T18:43:05;1.50;;;0.73;;
36575;SDS011;45700;50.930;5.168;2023-07-29T18:47:06;2.35;;;0.93;;
36575;SDS011;45700;50.930;5.168;2023-07-29T18:51:08;2.40;;;1.00;;
36575;SDS011;45700;50.930;5.168;2023-07-29T18:55:09;1.13;;;0.63;;
36575;SDS011;45700;50.930;5.168;2023-07-29T18:59:10;2.63;;;0.68;;
36575;SDS011;45700;50.930;5.168;2023-07-29T19:03:11;1.15;;;0.82;;
36575;SDS011;45700;50.930;5.168;2023-07-29T19:07:13;1.27;;;0.82;;
36575;SDS011;45700;50.930;5.168;2023-07-29T19:11:14;1.77;;;1.00;;
36575;SDS011;45700;50.930;5.168;2023-07-29T19:15:15;1.08;;;0.80;;
36575;SDS011;45700;50.930;5.168;2023-07-29T19:19:16;1.50;;;0.90;;
36575;SDS011;45700;50.930;5.168;2023-07-29T19:23:17;1.75;;;1.00;;
36575;SDS011;45700;50.930;5.168;2023-07-29T19:27:19;2.05;;;0.95;;
36575;SDS011;45700;50.930;5.168;2023-07-29T19:31:20;3.15;;;1.05;;
36575;SDS011;45700;50.930;5.168;2023-07-29T19:35:21;1.55;;;0.65;;
36575;SDS011;45700;50.930;5.168;2023-07-29T19:39:22;1.75;;;0.90;;
36575;SDS011;45700;50.930;5.168;2023-07-29T19:43:23;3.10;;;1.20;;
36575;SDS011;45700;50.930;5.168;2023-07-29T19:47:25;3.15;;;1.13;;
36575;SDS011;45700;50.930;5.168;2023-07-29T19:51:26;5.30;;;1.38;;
36575;SDS011;45700;50.930;5.168;2023-07-29T20:00:05;4.55;;;1.45;;
36575;SDS011;45700;50.930;5.168;2023-07-29T20:04:07;3.42;;;0.95;;
36575;SDS011;45700;50.930;5.168;2023-07-29T20:08:08;3.92;;;0.95;;
36575;SDS011;45700;50.930;5.168;2023-07-29T20:12:09;3.00;;;1.40;;
36575;SDS011;45700;50.930;5.168;2023-07-29T20:16:10;5.60;;;1.38;;
36575;SDS011;45700;50.930;5.168;2023-07-29T20:20:11;3.15;;;1.00;;
36575;SDS011;45700;50.930;5.168;2023-07-29T20:24:12;5.95;;;1.40;;
36575;SDS011;45700;50.930;5.168;2023-07-29T20:28:13;3.65;;;1.13;;
36575;SDS011;45700;50.930;5.168;2023-07-29T20:32:14;2.80;;;1.45;;
36575;SDS011;45700;50.930;5.168;2023-07-29T20:36:15;5.57;;;1.30;;
36575;SDS011;45700;50.930;5.168;2023-07-29T20:40:16;3.20;;;1.50;;
36575;SDS011;45700;50.930;5.168;2023-07-29T20:44:17;1.77;;;1.23;;
36575;SDS011;45700;50.930;5.168;2023-07-29T20:48:18;3.28;;;1.77;;
36575;SDS011;45700;50.930;5.168;2023-07-29T20:52:19;8.02;;;1.42;;
36575;SDS011;45700;50.930;5.168;2023-07-29T20:56:21;3.83;;;1.00;;
36575;SDS011;45700;50.930;5.168;2023-07-29T21:00:22;3.92;;;0.93;;
36575;SDS011;45700;50.930;5.168;2023-07-29T21:04:23;2.53;;;1.13;;
36575;SDS011;45700;50.930;5.168;2023-07-29T21:08:24;4.43;;;1.08;;
36575;SDS011;45700;50.930;5.168;2023-07-29T21:12:25;4.72;;;2.83;;
36575;SDS011;45700;50.930;5.168;2023-07-29T21:16:26;1.50;;;1.10;;
36575;SDS011;45700;50.930;5.168;2023-07-29T21:20:27;1.42;;;0.90;;
36575;SDS011;45700;50.930;5.168;2023-07-29T21:24:28;4.60;;;1.10;;
36575;SDS011;45700;50.930;5.168;2023-07-29T21:28:29;3.90;;;1.20;;
36575;SDS011;45700;50.930;5.168;2023-07-29T21:32:30;3.17;;;1.17;;
36575;SDS011;45700;50.930;5.168;2023-07-29T21:36:31;9.52;;;1.42;;
36575;SDS011;45700;50.930;5.168;2023-07-29T21:40:32;2.58;;;1.33;;
36575;SDS011;45700;50.930;5.168;2023-07-29T21:44:33;3.75;;;1.35;;
36575;SDS011;45700;50.930;5.168;2023-07-29T21:48:34;2.72;;;1.20;;
36575;SDS011;45700;50.930;5.168;2023-07-29T21:52:35;3.53;;;1.42;;
36575;SDS011;45700;50.930;5.168;2023-07-29T21:56:36;2.20;;;1.00;;
36575;SDS011;45700;50.930;5.168;2023-07-29T22:00:37;4.30;;;1.40;;
36575;SDS011;45700;50.930;5.168;2023-07-29T22:04:39;5.70;;;1.35;;
36575;SDS011;45700;50.930;5.168;2023-07-29T22:08:40;4.90;;;1.38;;
36575;SDS011;45700;50.930;5.168;2023-07-29T22:12:41;5.00;;;1.92;;
36575;SDS011;45700;50.930;5.168;2023-07-29T22:16:43;6.57;;;1.65;;
36575;SDS011;45700;50.930;5.168;2023-07-29T22:20:54;5.60;;;1.50;;
36575;SDS011;45700;50.930;5.168;2023-07-29T22:24:55;7.10;;;1.45;;
36575;SDS011;45700;50.930;5.168;2023-07-29T22:28:57;5.53;;;1.15;;
36575;SDS011;45700;50.930;5.168;2023-07-29T22:32:58;4.13;;;1.55;;
36575;SDS011;45700;50.930;5.168;2023-07-29T22:36:59;6.20;;;1.40;;
36575;SDS011;45700;50.930;5.168;2023-07-29T22:41:00;6.68;;;1.48;;
36575;SDS011;45700;50.930;5.168;2023-07-29T22:45:01;1.92;;;1.20;;
36575;SDS011;45700;50.930;5.168;2023-07-29T22:49:02;9.15;;;2.00;;
36575;SDS011;45700;50.930;5.168;2023-07-29T22:53:03;9.43;;;1.92;;
36575;SDS011;45700;50.930;5.168;2023-07-29T22:57:04;4.38;;;1.08;;
36575;SDS011;45700;50.930;5.168;2023-07-29T23:01:05;5.75;;;2.05;;
36575;SDS011;45700;50.930;5.168;2023-07-29T23:05:07;5.82;;;1.20;;
36575;SDS011;45700;50.930;5.168;2023-07-29T23:09:08;7.00;;;1.30;;
36575;SDS011;45700;50.930;5.168;2023-07-29T23:13:09;7.25;;;1.52;;
36575;SDS011;45700;50.930;5.168;2023-07-29T23:17:10;3.13;;;1.27;;
36575;SDS011;45700;50.930;5.168;2023-07-29T23:21:11;3.05;;;1.00;;
36575;SDS011;45700;50.930;5.168;2023-07-29T23:25:12;5.13;;;1.27;;
36575;SDS011;45700;50.930;5.168;2023-07-29T23:29:13;4.95;;;1.38;;
36575;SDS011;45700;50.930;5.168;2023-07-29T23:33:14;2.47;;;1.27;;
36575;SDS011;45700;50.930;5.168;2023-07-29T23:37:15;5.30;;;1.30;;
36575;SDS011;45700;50.930;5.168;2023-07-29T23:41:16;7.85;;;1.60;;
36575;SDS011;45700;50.930;5.168;2023-07-29T23:45:17;3.22;;;1.40;;
36575;SDS011;45700;50.930;5.168;2023-07-29T23:49:18;4.88;;;1.40;;
36575;SDS011;45700;50.930;5.168;2023-07-29T23:53:19;3.80;;;1.48;;
36575;SDS011;45700;50.930;5.168;2023-07-29T23:57:20;3.80;;;0.90;;
